sensor_id;sensor_type;location;lat;lon;timestamp;P1;durP1;ratioP1;P2;durP2;ratioP2
16837;SDS011;19510;54.486;9.046;2024-03-02T00:01:04;24.13;;;12.57;;
16837;SDS011;19510;54.486;9.046;2024-03-02T00:03:30;22.58;;;13.05;;
16837;SDS011;19510;54.486;9.046;2024-03-02T00:05:55;24.30;;;12.88;;
16837;SDS011;19510;54.486;9.046;2024-03-02T00:08:24;24.48;;;12.68;;
16837;SDS011;19510;54.486;9.046;2024-03-02T00:10:51;26.75;;;13.70;;
16837;SDS011;19510;54.486;9.046;2024-03-02T00:13:18;26.20;;;12.68;;
16837;SDS011;19510;54.486;9.046;2024-03-02T00:15:48;25.85;;;12.80;;
16837;SDS011;19510;54.486;9.046;2024-03-02T00:20:49;24.75;;;12.23;;
16837;SDS011;19510;54.486;9.046;2024-03-02T00:23:21;24.52;;;12.95;;
16837;SDS011;19510;54.486;9.046;2024-03-02T00:25:48;26.52;;;14.90;;
16837;SDS011;19510;54.486;9.046;2024-03-02T00:28:22;29.65;;;13.65;;
16837;SDS011;19510;54.486;9.046;2024-03-02T00:30:59;29.88;;;13.85;;
16837;SDS011;19510;54.486;9.046;2024-03-02T00:33:46;23.95;;;12.20;;
16837;SDS011;19510;54.486;9.046;2024-03-02T00:36:16;28.88;;;13.93;;
16837;SDS011;19510;54.486;9.046;2024-03-02T00:38:50;26.83;;;13.57;;
16837;SDS011;19510;54.486;9.046;2024-03-02T00:41:22;25.60;;;13.23;;
16837;SDS011;19510;54.486;9.046;2024-03-02T00:43:57;26.83;;;12.88;;
16837;SDS011;19510;54.486;9.046;2024-03-02T00:46:24;26.33;;;12.77;;
16837;SDS011;19510;54.486;9.046;2024-03-02T00:48:58;27.30;;;13.25;;
16837;SDS011;19510;54.486;9.046;2024-03-02T00:51:45;28.55;;;13.63;;
16837;SDS011;19510;54.486;9.046;2024-03-02T00:54:13;27.05;;;12.98;;
16837;SDS011;19510;54.486;9.046;2024-03-02T00:56:41;31.75;;;14.10;;
16837;SDS011;19510;54.486;9.046;2024-03-02T00:59:07;26.17;;;13.48;;
16837;SDS011;19510;54.486;9.046;2024-03-02T01:01:33;27.10;;;13.15;;
16837;SDS011;19510;54.486;9.046;2024-03-02T01:04:00;27.73;;;12.95;;
16837;SDS011;19510;54.486;9.046;2024-03-02T01:06:25;27.13;;;14.00;;
16837;SDS011;19510;54.486;9.046;2024-03-02T01:08:51;23.92;;;13.52;;
16837;SDS011;19510;54.486;9.046;2024-03-02T01:11:19;25.33;;;13.43;;
16837;SDS011;19510;54.486;9.046;2024-03-02T01:13:51;27.52;;;13.98;;
16837;SDS011;19510;54.486;9.046;2024-03-02T01:16:17;24.90;;;13.35;;
16837;SDS011;19510;54.486;9.046;2024-03-02T01:18:43;28.40;;;13.18;;
16837;SDS011;19510;54.486;9.046;2024-03-02T01:21:09;26.90;;;13.32;;
16837;SDS011;19510;54.486;9.046;2024-03-02T01:23:34;29.50;;;13.68;;
16837;SDS011;19510;54.486;9.046;2024-03-02T01:26:00;25.92;;;12.77;;
16837;SDS011;19510;54.486;9.046;2024-03-02T01:28:28;28.83;;;13.93;;
16837;SDS011;19510;54.486;9.046;2024-03-02T01:30:54;22.58;;;13.48;;
16837;SDS011;19510;54.486;9.046;2024-03-02T01:33:19;23.88;;;13.60;;
16837;SDS011;19510;54.486;9.046;2024-03-02T01:35:46;28.33;;;13.80;;
16837;SDS011;19510;54.486;9.046;2024-03-02T01:38:12;29.08;;;15.02;;
16837;SDS011;19510;54.486;9.046;2024-03-02T01:40:38;28.50;;;13.80;;
16837;SDS011;19510;54.486;9.046;2024-03-02T01:43:07;26.50;;;14.25;;
16837;SDS011;19510;54.486;9.046;2024-03-02T01:45:33;27.60;;;13.98;;
16837;SDS011;19510;54.486;9.046;2024-03-02T01:48:01;29.15;;;15.20;;
16837;SDS011;19510;54.486;9.046;2024-03-02T01:50:36;31.45;;;14.48;;
16837;SDS011;19510;54.486;9.046;2024-03-02T01:53:02;31.15;;;14.93;;
16837;SDS011;19510;54.486;9.046;2024-03-02T01:55:29;31.05;;;14.18;;
16837;SDS011;19510;54.486;9.046;2024-03-02T01:57:55;28.67;;;13.98;;
16837;SDS011;19510;54.486;9.046;2024-03-02T02:00:21;27.58;;;14.48;;
16837;SDS011;19510;54.486;9.046;2024-03-02T02:02:49;34.33;;;15.85;;
16837;SDS011;19510;54.486;9.046;2024-03-02T02:05:15;28.27;;;14.45;;
16837;SDS011;19510;54.486;9.046;2024-03-02T02:07:41;27.38;;;13.85;;
16837;SDS011;19510;54.486;9.046;2024-03-02T02:10:08;30.05;;;14.77;;
16837;SDS011;19510;54.486;9.046;2024-03-02T02:12:34;28.88;;;15.10;;
16837;SDS011;19510;54.486;9.046;2024-03-02T02:15:01;26.90;;;13.90;;
16837;SDS011;19510;54.486;9.046;2024-03-02T02:17:26;29.75;;;13.98;;
16837;SDS011;19510;54.486;9.046;2024-03-02T02:19:52;26.33;;;13.88;;
16837;SDS011;19510;54.486;9.046;2024-03-02T02:22:18;29.33;;;14.55;;
16837;SDS011;19510;54.486;9.046;2024-03-02T02:24:43;26.13;;;13.50;;
16837;SDS011;19510;54.486;9.046;2024-03-02T02:27:12;28.58;;;14.25;;
16837;SDS011;19510;54.486;9.046;2024-03-02T02:29:40;31.50;;;14.20;;
16837;SDS011;19510;54.486;9.046;2024-03-02T02:32:06;27.35;;;14.40;;
16837;SDS011;19510;54.486;9.046;2024-03-02T02:34:32;29.33;;;13.93;;
16837;SDS011;19510;54.486;9.046;2024-03-02T02:36:58;28.67;;;14.07;;
16837;SDS011;19510;54.486;9.046;2024-03-02T02:39:27;29.08;;;15.05;;
16837;SDS011;19510;54.486;9.046;2024-03-02T02:41:53;28.85;;;14.77;;
16837;SDS011;19510;54.486;9.046;2024-03-02T02:44:18;31.05;;;14.02;;
16837;SDS011;19510;54.486;9.046;2024-03-02T02:46:44;25.98;;;13.63;;
16837;SDS011;19510;54.486;9.046;2024-03-02T02:49:10;29.67;;;14.52;;
16837;SDS011;19510;54.486;9.046;2024-03-02T02:51:35;26.45;;;14.82;;
16837;SDS011;19510;54.486;9.046;2024-03-02T02:54:01;30.17;;;14.23;;
16837;SDS011;19510;54.486;9.046;2024-03-02T02:56:27;26.77;;;13.65;;
16837;SDS011;19510;54.486;9.046;2024-03-02T02:58:53;28.67;;;14.43;;
16837;SDS011;19510;54.486;9.046;2024-03-02T03:01:18;27.80;;;14.25;;
16837;SDS011;19510;54.486;9.046;2024-03-02T03:03:46;28.60;;;14.57;;
16837;SDS011;19510;54.486;9.046;2024-03-02T03:06:14;28.25;;;14.25;;
16837;SDS011;19510;54.486;9.046;2024-03-02T03:08:40;29.35;;;14.65;;
16837;SDS011;19510;54.486;9.046;2024-03-02T03:11:06;28.38;;;14.93;;
16837;SDS011;19510;54.486;9.046;2024-03-02T03:13:32;25.30;;;14.43;;
16837;SDS011;19510;54.486;9.046;2024-03-02T03:15:58;28.90;;;14.40;;
16837;SDS011;19510;54.486;9.046;2024-03-02T03:18:24;28.77;;;14.43;;
16837;SDS011;19510;54.486;9.046;2024-03-02T03:20:50;28.98;;;14.50;;
16837;SDS011;19510;54.486;9.046;2024-03-02T03:23:16;28.13;;;13.52;;
16837;SDS011;19510;54.486;9.046;2024-03-02T03:25:42;28.77;;;14.15;;
16837;SDS011;19510;54.486;9.046;2024-03-02T03:28:08;27.83;;;14.25;;
16837;SDS011;19510;54.486;9.046;2024-03-02T03:30:38;27.58;;;13.70;;
16837;SDS011;19510;54.486;9.046;2024-03-02T03:33:04;29.75;;;14.73;;
16837;SDS011;19510;54.486;9.046;2024-03-02T03:35:33;30.23;;;14.20;;
16837;SDS011;19510;54.486;9.046;2024-03-02T03:37:59;28.05;;;14.13;;
16837;SDS011;19510;54.486;9.046;2024-03-02T03:40:26;24.70;;;13.02;;
16837;SDS011;19510;54.486;9.046;2024-03-02T03:42:51;24.02;;;13.70;;
16837;SDS011;19510;54.486;9.046;2024-03-02T03:45:17;24.95;;;13.25;;
16837;SDS011;19510;54.486;9.046;2024-03-02T03:47:43;29.08;;;14.27;;
16837;SDS011;19510;54.486;9.046;2024-03-02T03:50:11;30.23;;;13.73;;
16837;SDS011;19510;54.486;9.046;2024-03-02T03:52:37;28.90;;;13.95;;
16837;SDS011;19510;54.486;9.046;2024-03-02T03:55:03;27.90;;;14.65;;
16837;SDS011;19510;54.486;9.046;2024-03-02T03:57:32;28.30;;;13.45;;
16837;SDS011;19510;54.486;9.046;2024-03-02T03:59:58;28.63;;;14.90;;
16837;SDS011;19510;54.486;9.046;2024-03-02T04:02:24;29.98;;;14.70;;
16837;SDS011;19510;54.486;9.046;2024-03-02T04:04:50;30.08;;;14.38;;
16837;SDS011;19510;54.486;9.046;2024-03-02T04:07:16;30.23;;;14.25;;
16837;SDS011;19510;54.486;9.046;2024-03-02T04:09:44;27.20;;;14.27;;
16837;SDS011;19510;54.486;9.046;2024-03-02T04:12:09;27.10;;;13.68;;
16837;SDS011;19510;54.486;9.046;2024-03-02T04:14:38;25.38;;;12.82;;
16837;SDS011;19510;54.486;9.046;2024-03-02T04:17:04;24.98;;;13.82;;
16837;SDS011;19510;54.486;9.046;2024-03-02T04:19:30;25.90;;;14.05;;
16837;SDS011;19510;54.486;9.046;2024-03-02T04:21:55;30.25;;;14.82;;
16837;SDS011;19510;54.486;9.046;2024-03-02T04:24:21;26.55;;;13.85;;
16837;SDS011;19510;54.486;9.046;2024-03-02T04:26:47;27.60;;;13.65;;
16837;SDS011;19510;54.486;9.046;2024-03-02T04:29:12;28.52;;;14.55;;
16837;SDS011;19510;54.486;9.046;2024-03-02T04:31:38;27.25;;;14.75;;
16837;SDS011;19510;54.486;9.046;2024-03-02T04:34:04;27.08;;;14.10;;
16837;SDS011;19510;54.486;9.046;2024-03-02T04:36:32;28.88;;;14.38;;
16837;SDS011;19510;54.486;9.046;2024-03-02T04:38:58;31.40;;;15.07;;
16837;SDS011;19510;54.486;9.046;2024-03-02T04:41:23;29.25;;;14.95;;
16837;SDS011;19510;54.486;9.046;2024-03-02T04:43:49;26.55;;;13.40;;
16837;SDS011;19510;54.486;9.046;2024-03-02T04:46:17;26.77;;;14.25;;
16837;SDS011;19510;54.486;9.046;2024-03-02T04:48:43;29.95;;;15.38;;
16837;SDS011;19510;54.486;9.046;2024-03-02T04:51:09;25.63;;;13.77;;
16837;SDS011;19510;54.486;9.046;2024-03-02T04:53:38;25.92;;;13.45;;
16837;SDS011;19510;54.486;9.046;2024-03-02T04:56:06;30.10;;;14.43;;
16837;SDS011;19510;54.486;9.046;2024-03-02T04:58:50;29.77;;;14.73;;
16837;SDS011;19510;54.486;9.046;2024-03-02T05:01:18;31.08;;;14.77;;
16837;SDS011;19510;54.486;9.046;2024-03-02T05:03:49;29.00;;;13.80;;
16837;SDS011;19510;54.486;9.046;2024-03-02T05:06:15;28.48;;;14.55;;
16837;SDS011;19510;54.486;9.046;2024-03-02T05:08:40;29.25;;;15.07;;
16837;SDS011;19510;54.486;9.046;2024-03-02T05:11:06;30.48;;;15.18;;
16837;SDS011;19510;54.486;9.046;2024-03-02T05:13:51;27.42;;;14.98;;
16837;SDS011;19510;54.486;9.046;2024-03-02T05:16:16;31.77;;;15.50;;
16837;SDS011;19510;54.486;9.046;2024-03-02T05:18:44;28.45;;;14.75;;
16837;SDS011;19510;54.486;9.046;2024-03-02T05:21:10;28.30;;;14.10;;
16837;SDS011;19510;54.486;9.046;2024-03-02T05:23:36;32.75;;;14.52;;
16837;SDS011;19510;54.486;9.046;2024-03-02T05:26:02;31.25;;;15.80;;
16837;SDS011;19510;54.486;9.046;2024-03-02T05:28:28;31.10;;;15.13;;
16837;SDS011;19510;54.486;9.046;2024-03-02T05:30:54;30.58;;;15.38;;
16837;SDS011;19510;54.486;9.046;2024-03-02T05:33:19;32.65;;;15.40;;
16837;SDS011;19510;54.486;9.046;2024-03-02T05:35:47;30.45;;;14.73;;
16837;SDS011;19510;54.486;9.046;2024-03-02T05:38:16;30.00;;;15.38;;
16837;SDS011;19510;54.486;9.046;2024-03-02T05:40:41;35.47;;;16.42;;
16837;SDS011;19510;54.486;9.046;2024-03-02T05:43:07;32.83;;;15.35;;
16837;SDS011;19510;54.486;9.046;2024-03-02T05:45:33;33.67;;;16.10;;
16837;SDS011;19510;54.486;9.046;2024-03-02T05:47:58;33.22;;;15.93;;
16837;SDS011;19510;54.486;9.046;2024-03-02T05:50:24;30.50;;;15.95;;
16837;SDS011;19510;54.486;9.046;2024-03-02T05:52:50;30.40;;;15.23;;
16837;SDS011;19510;54.486;9.046;2024-03-02T05:55:16;33.17;;;16.40;;
16837;SDS011;19510;54.486;9.046;2024-03-02T05:57:45;33.85;;;16.85;;
16837;SDS011;19510;54.486;9.046;2024-03-02T06:00:22;28.35;;;14.88;;
16837;SDS011;19510;54.486;9.046;2024-03-02T06:02:48;30.50;;;15.48;;
16837;SDS011;19510;54.486;9.046;2024-03-02T06:05:14;33.72;;;15.68;;
16837;SDS011;19510;54.486;9.046;2024-03-02T06:07:41;29.67;;;15.18;;
16837;SDS011;19510;54.486;9.046;2024-03-02T06:10:07;30.85;;;15.13;;
16837;SDS011;19510;54.486;9.046;2024-03-02T06:12:34;36.58;;;16.50;;
16837;SDS011;19510;54.486;9.046;2024-03-02T06:15:02;33.40;;;15.52;;
16837;SDS011;19510;54.486;9.046;2024-03-02T06:17:29;32.88;;;15.93;;
16837;SDS011;19510;54.486;9.046;2024-03-02T06:19:55;35.65;;;16.85;;
16837;SDS011;19510;54.486;9.046;2024-03-02T06:22:21;32.30;;;15.55;;
16837;SDS011;19510;54.486;9.046;2024-03-02T06:24:50;34.30;;;16.92;;
16837;SDS011;19510;54.486;9.046;2024-03-02T06:27:16;33.17;;;17.25;;
16837;SDS011;19510;54.486;9.046;2024-03-02T06:29:42;37.92;;;17.30;;
16837;SDS011;19510;54.486;9.046;2024-03-02T06:32:08;32.03;;;15.30;;
16837;SDS011;19510;54.486;9.046;2024-03-02T06:34:33;33.60;;;16.55;;
16837;SDS011;19510;54.486;9.046;2024-03-02T06:36:59;31.47;;;15.33;;
16837;SDS011;19510;54.486;9.046;2024-03-02T06:39:25;31.70;;;16.20;;
16837;SDS011;19510;54.486;9.046;2024-03-02T06:41:51;34.53;;;16.27;;
16837;SDS011;19510;54.486;9.046;2024-03-02T06:44:17;34.70;;;16.27;;
16837;SDS011;19510;54.486;9.046;2024-03-02T06:46:43;29.88;;;15.60;;
16837;SDS011;19510;54.486;9.046;2024-03-02T06:49:09;32.20;;;16.80;;
16837;SDS011;19510;54.486;9.046;2024-03-02T06:51:37;31.05;;;15.82;;
16837;SDS011;19510;54.486;9.046;2024-03-02T06:54:03;32.97;;;15.07;;
16837;SDS011;19510;54.486;9.046;2024-03-02T06:56:29;33.78;;;16.55;;
16837;SDS011;19510;54.486;9.046;2024-03-02T06:58:58;31.05;;;15.68;;
16837;SDS011;19510;54.486;9.046;2024-03-02T07:01:23;31.73;;;15.48;;
16837;SDS011;19510;54.486;9.046;2024-03-02T07:03:51;32.10;;;16.55;;
16837;SDS011;19510;54.486;9.046;2024-03-02T07:06:17;30.23;;;14.90;;
16837;SDS011;19510;54.486;9.046;2024-03-02T07:08:43;34.58;;;16.38;;
16837;SDS011;19510;54.486;9.046;2024-03-02T07:11:10;34.55;;;15.45;;
16837;SDS011;19510;54.486;9.046;2024-03-02T07:13:36;36.90;;;15.98;;
16837;SDS011;19510;54.486;9.046;2024-03-02T07:16:02;28.17;;;15.95;;
16837;SDS011;19510;54.486;9.046;2024-03-02T07:18:28;28.98;;;14.65;;
16837;SDS011;19510;54.486;9.046;2024-03-02T07:20:55;30.95;;;15.95;;
16837;SDS011;19510;54.486;9.046;2024-03-02T07:23:23;33.00;;;16.13;;
16837;SDS011;19510;54.486;9.046;2024-03-02T07:25:52;32.00;;;16.23;;
16837;SDS011;19510;54.486;9.046;2024-03-02T07:28:21;27.08;;;15.18;;
16837;SDS011;19510;54.486;9.046;2024-03-02T07:30:57;26.98;;;15.52;;
16837;SDS011;19510;54.486;9.046;2024-03-02T07:33:24;28.52;;;14.30;;
16837;SDS011;19510;54.486;9.046;2024-03-02T07:35:49;30.45;;;15.25;;
16837;SDS011;19510;54.486;9.046;2024-03-02T07:38:15;38.38;;;16.83;;
16837;SDS011;19510;54.486;9.046;2024-03-02T07:40:41;30.98;;;15.95;;
16837;SDS011;19510;54.486;9.046;2024-03-02T07:43:07;35.25;;;16.48;;
16837;SDS011;19510;54.486;9.046;2024-03-02T07:45:33;31.33;;;15.88;;
16837;SDS011;19510;54.486;9.046;2024-03-02T07:48:01;30.40;;;16.33;;
16837;SDS011;19510;54.486;9.046;2024-03-02T07:50:29;30.92;;;16.05;;
16837;SDS011;19510;54.486;9.046;2024-03-02T07:52:55;30.80;;;15.50;;
16837;SDS011;19510;54.486;9.046;2024-03-02T07:55:21;30.88;;;16.17;;
16837;SDS011;19510;54.486;9.046;2024-03-02T07:57:51;32.55;;;15.18;;
16837;SDS011;19510;54.486;9.046;2024-03-02T08:00:17;31.75;;;16.08;;
16837;SDS011;19510;54.486;9.046;2024-03-02T08:02:45;33.58;;;15.88;;
16837;SDS011;19510;54.486;9.046;2024-03-02T08:05:13;33.30;;;15.70;;
16837;SDS011;19510;54.486;9.046;2024-03-02T08:07:39;30.77;;;15.93;;
16837;SDS011;19510;54.486;9.046;2024-03-02T08:10:06;33.83;;;16.13;;
16837;SDS011;19510;54.486;9.046;2024-03-02T08:12:35;30.33;;;14.77;;
16837;SDS011;19510;54.486;9.046;2024-03-02T08:15:00;34.28;;;16.10;;
16837;SDS011;19510;54.486;9.046;2024-03-02T08:17:26;30.17;;;15.50;;
16837;SDS011;19510;54.486;9.046;2024-03-02T08:19:52;29.10;;;14.75;;
16837;SDS011;19510;54.486;9.046;2024-03-02T08:22:24;29.95;;;15.20;;
16837;SDS011;19510;54.486;9.046;2024-03-02T08:24:54;29.92;;;15.32;;
16837;SDS011;19510;54.486;9.046;2024-03-02T08:27:20;28.92;;;15.80;;
16837;SDS011;19510;54.486;9.046;2024-03-02T08:29:46;27.70;;;14.27;;
16837;SDS011;19510;54.486;9.046;2024-03-02T08:32:12;26.60;;;14.77;;
16837;SDS011;19510;54.486;9.046;2024-03-02T08:34:37;30.70;;;15.35;;
16837;SDS011;19510;54.486;9.046;2024-03-02T08:37:05;28.27;;;15.35;;
16837;SDS011;19510;54.486;9.046;2024-03-02T08:39:34;30.35;;;15.13;;
16837;SDS011;19510;54.486;9.046;2024-03-02T08:41:59;28.02;;;14.98;;
16837;SDS011;19510;54.486;9.046;2024-03-02T08:44:25;32.53;;;14.75;;
16837;SDS011;19510;54.486;9.046;2024-03-02T08:46:51;26.70;;;13.85;;
16837;SDS011;19510;54.486;9.046;2024-03-02T08:49:17;28.85;;;14.38;;
16837;SDS011;19510;54.486;9.046;2024-03-02T08:51:45;24.88;;;14.05;;
16837;SDS011;19510;54.486;9.046;2024-03-02T08:54:21;27.88;;;14.27;;
16837;SDS011;19510;54.486;9.046;2024-03-02T08:56:50;25.85;;;13.43;;
16837;SDS011;19510;54.486;9.046;2024-03-02T08:59:18;26.20;;;14.25;;
16837;SDS011;19510;54.486;9.046;2024-03-02T09:01:46;26.42;;;13.40;;
16837;SDS011;19510;54.486;9.046;2024-03-02T09:04:12;28.20;;;13.82;;
16837;SDS011;19510;54.486;9.046;2024-03-02T09:06:40;24.85;;;13.65;;
16837;SDS011;19510;54.486;9.046;2024-03-02T09:09:08;23.08;;;13.43;;
16837;SDS011;19510;54.486;9.046;2024-03-02T09:11:33;23.13;;;13.38;;
16837;SDS011;19510;54.486;9.046;2024-03-02T09:13:59;24.02;;;14.13;;
16837;SDS011;19510;54.486;9.046;2024-03-02T09:16:27;22.98;;;12.30;;
16837;SDS011;19510;54.486;9.046;2024-03-02T09:18:56;23.63;;;13.57;;
16837;SDS011;19510;54.486;9.046;2024-03-02T09:21:22;24.33;;;14.05;;
16837;SDS011;19510;54.486;9.046;2024-03-02T09:23:50;26.00;;;14.10;;
16837;SDS011;19510;54.486;9.046;2024-03-02T09:26:18;21.67;;;11.65;;
16837;SDS011;19510;54.486;9.046;2024-03-02T09:28:47;23.17;;;12.30;;
16837;SDS011;19510;54.486;9.046;2024-03-02T09:31:15;22.30;;;11.80;;
16837;SDS011;19510;54.486;9.046;2024-03-02T09:33:43;23.45;;;12.88;;
16837;SDS011;19510;54.486;9.046;2024-03-02T09:36:22;21.77;;;11.93;;
16837;SDS011;19510;54.486;9.046;2024-03-02T09:38:50;20.52;;;11.38;;
16837;SDS011;19510;54.486;9.046;2024-03-02T09:41:16;20.77;;;11.93;;
16837;SDS011;19510;54.486;9.046;2024-03-02T09:43:46;19.98;;;11.57;;
16837;SDS011;19510;54.486;9.046;2024-03-02T09:46:12;24.00;;;11.88;;
16837;SDS011;19510;54.486;9.046;2024-03-02T09:48:39;18.92;;;10.65;;
16837;SDS011;19510;54.486;9.046;2024-03-02T09:51:04;22.02;;;11.68;;
16837;SDS011;19510;54.486;9.046;2024-03-02T09:53:31;19.42;;;10.93;;
16837;SDS011;19510;54.486;9.046;2024-03-02T09:56:02;19.20;;;11.27;;
16837;SDS011;19510;54.486;9.046;2024-03-02T09:58:32;19.70;;;11.70;;
16837;SDS011;19510;54.486;9.046;2024-03-02T10:00:58;17.85;;;10.50;;
16837;SDS011;19510;54.486;9.046;2024-03-02T10:03:23;21.52;;;10.85;;
16837;SDS011;19510;54.486;9.046;2024-03-02T10:05:49;21.30;;;11.30;;
16837;SDS011;19510;54.486;9.046;2024-03-02T10:08:16;20.20;;;10.18;;
16837;SDS011;19510;54.486;9.046;2024-03-02T10:10:42;19.85;;;10.70;;
16837;SDS011;19510;54.486;9.046;2024-03-02T10:13:11;17.17;;;10.30;;
16837;SDS011;19510;54.486;9.046;2024-03-02T10:15:40;16.95;;;10.02;;
16837;SDS011;19510;54.486;9.046;2024-03-02T10:18:10;19.23;;;9.68;;
16837;SDS011;19510;54.486;9.046;2024-03-02T10:20:40;19.40;;;11.05;;
16837;SDS011;19510;54.486;9.046;2024-03-02T10:23:13;19.08;;;10.30;;
16837;SDS011;19510;54.486;9.046;2024-03-02T10:25:43;19.55;;;10.13;;
16837;SDS011;19510;54.486;9.046;2024-03-02T10:28:10;18.55;;;9.93;;
16837;SDS011;19510;54.486;9.046;2024-03-02T10:30:37;18.80;;;10.88;;
16837;SDS011;19510;54.486;9.046;2024-03-02T10:33:03;17.20;;;9.55;;
16837;SDS011;19510;54.486;9.046;2024-03-02T10:35:31;18.30;;;10.15;;
16837;SDS011;19510;54.486;9.046;2024-03-02T10:38:05;17.05;;;9.27;;
16837;SDS011;19510;54.486;9.046;2024-03-02T10:40:34;15.75;;;8.63;;
16837;SDS011;19510;54.486;9.046;2024-03-02T10:43:02;14.85;;;8.82;;
16837;SDS011;19510;54.486;9.046;2024-03-02T10:45:35;14.80;;;8.40;;
16837;SDS011;19510;54.486;9.046;2024-03-02T10:48:01;16.80;;;9.05;;
16837;SDS011;19510;54.486;9.046;2024-03-02T10:50:30;16.05;;;9.60;;
16837;SDS011;19510;54.486;9.046;2024-03-02T10:53:05;14.18;;;7.82;;
16837;SDS011;19510;54.486;9.046;2024-03-02T10:55:31;12.82;;;7.60;;
16837;SDS011;19510;54.486;9.046;2024-03-02T10:57:56;15.50;;;8.10;;
16837;SDS011;19510;54.486;9.046;2024-03-02T11:00:31;16.15;;;8.65;;
16837;SDS011;19510;54.486;9.046;2024-03-02T11:03:04;15.73;;;8.15;;
16837;SDS011;19510;54.486;9.046;2024-03-02T11:05:36;14.90;;;7.32;;
16837;SDS011;19510;54.486;9.046;2024-03-02T11:08:08;14.57;;;7.82;;
16837;SDS011;19510;54.486;9.046;2024-03-02T11:13:22;11.05;;;7.53;;
16837;SDS011;19510;54.486;9.046;2024-03-02T11:16:12;12.88;;;7.95;;
16837;SDS011;19510;54.486;9.046;2024-03-02T11:18:55;13.52;;;7.70;;
16837;SDS011;19510;54.486;9.046;2024-03-02T11:21:24;12.90;;;6.93;;
16837;SDS011;19510;54.486;9.046;2024-03-02T11:23:50;11.02;;;6.85;;
16837;SDS011;19510;54.486;9.046;2024-03-02T11:26:21;11.38;;;7.65;;
16837;SDS011;19510;54.486;9.046;2024-03-02T11:28:49;11.18;;;6.75;;
16837;SDS011;19510;54.486;9.046;2024-03-02T11:31:19;12.45;;;6.57;;
16837;SDS011;19510;54.486;9.046;2024-03-02T11:33:47;13.18;;;7.10;;
16837;SDS011;19510;54.486;9.046;2024-03-02T11:36:12;11.30;;;6.60;;
16837;SDS011;19510;54.486;9.046;2024-03-02T11:38:38;11.07;;;6.32;;
16837;SDS011;19510;54.486;9.046;2024-03-02T11:41:10;10.25;;;6.60;;
16837;SDS011;19510;54.486;9.046;2024-03-02T11:43:39;12.88;;;6.22;;
16837;SDS011;19510;54.486;9.046;2024-03-02T11:46:07;11.65;;;6.20;;
16837;SDS011;19510;54.486;9.046;2024-03-02T11:48:35;12.63;;;7.07;;
16837;SDS011;19510;54.486;9.046;2024-03-02T11:51:08;10.38;;;5.95;;
16837;SDS011;19510;54.486;9.046;2024-03-02T11:53:36;10.20;;;5.80;;
16837;SDS011;19510;54.486;9.046;2024-03-02T11:56:07;8.93;;;5.80;;
16837;SDS011;19510;54.486;9.046;2024-03-02T11:58:36;9.20;;;5.38;;
16837;SDS011;19510;54.486;9.046;2024-03-02T12:01:06;9.90;;;6.30;;
16837;SDS011;19510;54.486;9.046;2024-03-02T12:03:34;8.48;;;5.55;;
16837;SDS011;19510;54.486;9.046;2024-03-02T12:06:02;10.63;;;6.30;;
16837;SDS011;19510;54.486;9.046;2024-03-02T12:08:29;11.93;;;6.60;;
16837;SDS011;19510;54.486;9.046;2024-03-02T12:11:02;11.95;;;6.95;;
16837;SDS011;19510;54.486;9.046;2024-03-02T12:13:28;10.40;;;6.68;;
16837;SDS011;19510;54.486;9.046;2024-03-02T12:15:54;14.15;;;7.13;;
16837;SDS011;19510;54.486;9.046;2024-03-02T12:18:21;9.43;;;6.15;;
16837;SDS011;19510;54.486;9.046;2024-03-02T12:20:48;11.25;;;6.57;;
16837;SDS011;19510;54.486;9.046;2024-03-02T12:23:23;11.20;;;6.40;;
16837;SDS011;19510;54.486;9.046;2024-03-02T12:25:49;12.02;;;6.35;;
16837;SDS011;19510;54.486;9.046;2024-03-02T12:28:15;11.80;;;6.68;;
16837;SDS011;19510;54.486;9.046;2024-03-02T12:30:44;9.02;;;6.03;;
16837;SDS011;19510;54.486;9.046;2024-03-02T12:33:10;11.48;;;6.55;;
16837;SDS011;19510;54.486;9.046;2024-03-02T12:35:36;11.20;;;5.93;;
16837;SDS011;19510;54.486;9.046;2024-03-02T12:38:02;11.75;;;6.22;;
16837;SDS011;19510;54.486;9.046;2024-03-02T12:40:32;9.73;;;6.30;;
16837;SDS011;19510;54.486;9.046;2024-03-02T12:42:57;11.50;;;6.55;;
16837;SDS011;19510;54.486;9.046;2024-03-02T12:45:26;9.40;;;6.18;;
16837;SDS011;19510;54.486;9.046;2024-03-02T12:47:52;10.00;;;5.70;;
16837;SDS011;19510;54.486;9.046;2024-03-02T12:50:20;8.98;;;5.70;;
16837;SDS011;19510;54.486;9.046;2024-03-02T12:52:52;9.52;;;6.07;;
16837;SDS011;19510;54.486;9.046;2024-03-02T12:55:21;8.60;;;5.85;;
16837;SDS011;19510;54.486;9.046;2024-03-02T12:57:49;10.60;;;6.05;;
16837;SDS011;19510;54.486;9.046;2024-03-02T13:00:17;14.00;;;6.35;;
16837;SDS011;19510;54.486;9.046;2024-03-02T13:02:45;8.77;;;5.78;;
16837;SDS011;19510;54.486;9.046;2024-03-02T13:05:11;9.75;;;5.35;;
16837;SDS011;19510;54.486;9.046;2024-03-02T13:07:38;11.05;;;6.30;;
16837;SDS011;19510;54.486;9.046;2024-03-02T13:10:04;7.28;;;4.55;;
16837;SDS011;19510;54.486;9.046;2024-03-02T13:12:32;10.65;;;5.72;;
16837;SDS011;19510;54.486;9.046;2024-03-02T13:14:58;7.68;;;5.20;;
16837;SDS011;19510;54.486;9.046;2024-03-02T13:17:24;8.05;;;4.88;;
16837;SDS011;19510;54.486;9.046;2024-03-02T13:22:23;7.40;;;4.13;;
16837;SDS011;19510;54.486;9.046;2024-03-02T13:24:53;14.38;;;4.80;;
16837;SDS011;19510;54.486;9.046;2024-03-02T13:27:22;8.35;;;5.40;;
16837;SDS011;19510;54.486;9.046;2024-03-02T13:29:49;9.35;;;6.00;;
16837;SDS011;19510;54.486;9.046;2024-03-02T13:32:17;8.02;;;4.65;;
16837;SDS011;19510;54.486;9.046;2024-03-02T13:34:45;15.65;;;7.13;;
16837;SDS011;19510;54.486;9.046;2024-03-02T13:37:13;8.88;;;5.78;;
16837;SDS011;19510;54.486;9.046;2024-03-02T13:39:41;10.35;;;5.88;;
16837;SDS011;19510;54.486;9.046;2024-03-02T13:42:08;10.88;;;5.70;;
16837;SDS011;19510;54.486;9.046;2024-03-02T13:44:34;9.23;;;5.68;;
16837;SDS011;19510;54.486;9.046;2024-03-02T13:47:00;8.40;;;5.60;;
16837;SDS011;19510;54.486;9.046;2024-03-02T13:49:26;9.30;;;5.82;;
16837;SDS011;19510;54.486;9.046;2024-03-02T13:52:04;9.00;;;5.70;;
16837;SDS011;19510;54.486;9.046;2024-03-02T13:54:39;8.68;;;5.03;;
16837;SDS011;19510;54.486;9.046;2024-03-02T13:57:08;8.13;;;5.47;;
16837;SDS011;19510;54.486;9.046;2024-03-02T13:59:37;10.15;;;5.82;;
16837;SDS011;19510;54.486;9.046;2024-03-02T14:02:07;9.50;;;5.82;;
16837;SDS011;19510;54.486;9.046;2024-03-02T14:04:36;9.40;;;5.53;;
16837;SDS011;19510;54.486;9.046;2024-03-02T14:07:02;12.10;;;6.65;;
16837;SDS011;19510;54.486;9.046;2024-03-02T14:09:32;10.00;;;6.38;;
16837;SDS011;19510;54.486;9.046;2024-03-02T14:11:57;10.52;;;5.80;;
16837;SDS011;19510;54.486;9.046;2024-03-02T14:14:25;10.50;;;5.88;;
16837;SDS011;19510;54.486;9.046;2024-03-02T14:16:52;8.77;;;5.72;;
16837;SDS011;19510;54.486;9.046;2024-03-02T14:19:21;9.45;;;5.68;;
16837;SDS011;19510;54.486;9.046;2024-03-02T14:21:47;8.65;;;5.45;;
16837;SDS011;19510;54.486;9.046;2024-03-02T14:24:13;8.68;;;5.13;;
16837;SDS011;19510;54.486;9.046;2024-03-02T14:26:41;12.57;;;5.18;;
16837;SDS011;19510;54.486;9.046;2024-03-02T14:29:09;8.52;;;4.65;;
16837;SDS011;19510;54.486;9.046;2024-03-02T14:31:35;8.80;;;4.05;;
16837;SDS011;19510;54.486;9.046;2024-03-02T14:34:00;7.25;;;4.28;;
16837;SDS011;19510;54.486;9.046;2024-03-02T14:36:26;9.85;;;5.07;;